Terminal Aerodrome Forecast
Issued by NWS Twin Cities, MN

Home | Current Version | Previous Version | Text Only | Print | Product List | Glossary Off
Versions: 1 2 3 4 5 6 7 8 9 10 11 12 13 14 15 16 17 18 19 20 21

000
FTUS43 KMPX 311700
TAFSTC
TAF
KSTC 311723Z 3118/0118 17015G22KT P6SM VCTS SCT035CB BKN050
     FM312100 19015G22KT P6SM VCSH BKN050
     FM312300 19010KT P6SM VCTS SCT035CB BKN070
     FM010300 21006KT P6SM SCT020 BKN090
     FM010600 26005KT 5SM BR SCT010 BKN150
     FM011200 30008KT 5SM BR BKN015=

USA.gov is the U.S. government's official web portal to all federal, state and local government web resources and services.